»·PEaware :: N415CS KAVX-KSAN

N415CS :: KAVX-KSAN

FLIGHT INFORMATION

Flight Status: Arrived
Operator: Privately registered:
United States
More flights under this callsign
Pilot: Kyle A. (14988)
Aircraft: CESSNA 182 SKYLANE
(C182)
More flights by this aircraft type
Origin: KAVX Catalina
United States
Destination: KSAN San Diego Intl-Lindbergh
United States
More flights between these airports :: More routes between these airports
Route: SXC V208 OCN V23 MZB
File this flight plan on PilotEdge
Remarks: I-8
Altitude:
(Current/Filed)
7,000ft
Speed:
(Current/Filed)
135kts
Departed: 01-Dec-17 11:42 AM
Arrived: 01-Dec-17 12:31 PM
Distance/Time
Traveled:
93nm/0:49
Distance/Time
To Go:
Arrived

Flight Plot

Page will automatically refresh every two minutes.


Map Options




Map Legend


Flown Route
Filed Route
Departure Airport
Arrival Airport
Navaid (VOR, NDB)
Fix

Horizontal Profiles

Position Reports

Time Latitude Longitude Heading Altitude Ground
Speed
01-Dec-17 11:30 33.403726 -118.415519 144 1605ft 0kts
01-Dec-17 11:31 33.403724 -118.415518 144 1605ft 0kts
01-Dec-17 11:32 33.403722 -118.415516 144 1605ft 0kts
01-Dec-17 11:33 33.403721 -118.415515 144 1605ft 0kts
01-Dec-17 11:34 33.403719 -118.415513 144 1605ft 0kts
01-Dec-17 11:35 33.403718 -118.415512 144 1605ft 0kts
01-Dec-17 11:36 33.403716 -118.415511 144 1605ft 0kts
01-Dec-17 11:37 33.403714 -118.415509 144 1605ft 0kts
01-Dec-17 11:38 33.403713 -118.415508 144 1605ft 0kts
01-Dec-17 11:39 33.403711 -118.415507 144 1605ft 0kts
01-Dec-17 11:40 33.403709 -118.415505 144 1605ft 0kts
01-Dec-17 11:41 33.403708 -118.415504 144 1605ft 0kts
01-Dec-17 11:42 33.403704 -118.415501 144 1605ft 0kts
01-Dec-17 11:43 33.404841 -118.415036 16 1605ft 7kts
01-Dec-17 11:44 33.406235 -118.412975 54 1605ft 8kts
01-Dec-17 11:45 33.407206 -118.411358 346 1605ft 0kts
01-Dec-17 11:46 33.407209 -118.411359 346 1605ft 0kts
01-Dec-17 11:47 33.401734 -118.421359 236 1779ft 90kts
01-Dec-17 11:48 33.387317 -118.446104 236 2776ft 89kts
01-Dec-17 11:49 33.374324 -118.437442 81 3758ft 80kts
01-Dec-17 11:50 33.373284 -118.403831 101 4593ft 120kts
01-Dec-17 11:51 33.367700 -118.363082 100 5002ft 137kts
01-Dec-17 11:52 33.361167 -118.313332 99 4990ft 154kts
01-Dec-17 11:53 33.354708 -118.264073 99 4992ft 147kts
01-Dec-17 11:54 33.348340 -118.215613 99 4998ft 146kts
01-Dec-17 11:55 33.341992 -118.167376 99 4998ft 147kts
01-Dec-17 11:56 33.335597 -118.119066 100 4995ft 147kts
01-Dec-17 11:57 33.329169 -118.070607 100 4992ft 147kts
01-Dec-17 11:58 33.322752 -118.022394 100 4989ft 147kts
01-Dec-17 11:59 33.316315 -117.974140 100 4988ft 147kts
01-Dec-17 12:00 33.309811 -117.925547 100 4972ft 147kts
01-Dec-17 12:01 33.303315 -117.877175 100 4972ft 147kts
01-Dec-17 12:02 33.296790 -117.828727 100 4988ft 146kts
01-Dec-17 12:03 33.290291 -117.780660 100 5001ft 147kts
01-Dec-17 12:04 33.283605 -117.732431 101 5002ft 147kts
01-Dec-17 12:05 33.276113 -117.683106 101 5006ft 152kts
01-Dec-17 12:06 33.268578 -117.633214 101 5001ft 153kts
01-Dec-17 12:07 33.261827 -117.588683 101 5001ft 152kts
01-Dec-17 12:08 33.255282 -117.538414 98 5001ft 152kts
01-Dec-17 12:09 33.249245 -117.488239 99 5003ft 152kts
01-Dec-17 12:10 33.243115 -117.438062 99 5001ft 153kts
01-Dec-17 12:11 33.214616 -117.406784 161 4997ft 152kts
01-Dec-17 12:12 33.173798 -117.389533 161 4985ft 156kts
01-Dec-17 12:13 33.133723 -117.372656 161 4981ft 150kts
01-Dec-17 12:14 33.094435 -117.356128 161 4998ft 149kts
01-Dec-17 12:15 33.055123 -117.339619 161 4998ft 150kts
01-Dec-17 12:16 33.015770 -117.323106 161 5000ft 149kts
01-Dec-17 12:17 32.984317 -117.309912 161 5000ft 149kts
01-Dec-17 12:18 32.945141 -117.293490 161 5000ft 149kts
01-Dec-17 12:19 32.904019 -117.276295 161 4426ft 160kts
01-Dec-17 12:20 32.868784 -117.261558 161 3975ft 156kts
01-Dec-17 12:21 32.828325 -117.244654 161 4006ft 157kts
01-Dec-17 12:22 32.787975 -117.227811 161 3998ft 151kts
01-Dec-17 12:23 32.764194 -117.183833 102 4014ft 149kts
01-Dec-17 12:24 32.756929 -117.142016 100 3997ft 156kts
01-Dec-17 12:25 32.748621 -117.093906 102 3993ft 145kts
01-Dec-17 12:26 32.740181 -117.045425 102 3999ft 155kts
01-Dec-17 12:27 32.731502 -116.995529 101 3984ft 154kts
01-Dec-17 12:28 32.722679 -116.949387 120 3983ft 139kts
01-Dec-17 12:29 32.697383 -116.961904 251 3812ft 130kts
01-Dec-17 12:30 32.686736 -117.001056 254 3782ft 120kts
01-Dec-17 12:31 32.696635 -117.039797 293 3055ft 123kts
01-Dec-17 12:32 32.707087 -117.078036 284 2601ft 117kts
01-Dec-17 12:33 32.714858 -117.112909 288 1764ft 99kts
01-Dec-17 12:34 32.722451 -117.143620 288 769ft 85kts
01-Dec-17 12:35 32.727929 -117.166535 289 350ft 63kts
01-Dec-17 12:36 32.731752 -117.183371 295 18ft 31kts
01-Dec-17 12:37 32.733272 -117.183703 100 18ft 12kts
01-Dec-17 12:38 32.733450 -117.179556 16 18ft 9kts
01-Dec-17 12:39 32.733522 -117.179139 190 18ft 0kts
01-Dec-17 12:47 34.422895 -119.836322 345 13ft 0kts
01-Dec-17 12:48 34.422897 -119.836323 345 13ft 0kts
01-Dec-17 12:49 34.422900 -119.836324 345 13ft 0kts

Navigation Log

Ident Type
1. KAVX Airport
2. SXC Navaid
3. AVOLS Fix
4. PACIF Fix
5. HUBRD Fix
6. OCN Navaid
7. HURSI Fix
8. CARIF Fix
9. MZB Navaid
10. KSAN Airport